sensor_id;sensor_type;location;lat;lon;timestamp;pressure;altitude;pressure_sealevel;temperature;humidity
76687;BME280;65615;47.378;19.344;2023-02-02T05:28:56;99939.69;;;2.75;100.00
76687;BME280;65615;47.378;19.344;2023-02-02T05:32:59;99939.69;;;2.75;100.00
76687;BME280;65615;47.378;19.344;2023-02-02T05:37:02;99947.19;;;2.10;100.00
76687;BME280;65615;47.378;19.344;2023-02-02T05:41:05;99950.97;;;2.06;100.00
76687;BME280;65615;47.378;19.344;2023-02-02T05:45:08;99959.88;;;2.14;100.00
76687;BME280;65615;47.378;19.344;2023-02-02T05:49:12;99955.72;;;2.12;100.00
76687;BME280;65615;47.378;19.344;2023-02-02T05:53:15;99965.41;;;2.10;100.00
76687;BME280;65615;47.378;19.344;2023-02-02T05:57:18;99962.41;;;2.03;100.00
76687;BME280;65615;47.378;19.344;2023-02-02T06:01:21;99959.69;;;2.05;100.00
76687;BME280;65615;47.378;19.344;2023-02-02T06:05:24;99971.06;;;2.04;100.00
76687;BME280;65615;47.378;19.344;2023-02-02T06:09:28;99963.25;;;2.04;100.00
76687;BME280;65615;47.378;19.344;2023-02-02T06:13:31;99963.47;;;2.01;100.00
76687;BME280;65615;47.378;19.344;2023-02-02T06:17:35;99980.97;;;1.99;100.00
76687;BME280;65615;47.378;19.344;2023-02-02T06:21:48;99983.13;;;2.05;100.00
76687;BME280;65615;47.378;19.344;2023-02-02T06:25:53;99999.50;;;2.07;100.00
76687;BME280;65615;47.378;19.344;2023-02-02T06:29:58;99990.50;;;2.11;100.00
76687;BME280;65615;47.378;19.344;2023-02-02T06:34:01;99981.53;;;2.15;100.00
76687;BME280;65615;47.378;19.344;2023-02-02T06:38:04;99993.63;;;2.16;100.00
76687;BME280;65615;47.378;19.344;2023-02-02T06:42:07;99996.13;;;2.17;100.00
76687;BME280;65615;47.378;19.344;2023-02-02T06:46:23;100005.50;;;2.20;100.00
76687;BME280;65615;47.378;19.344;2023-02-02T06:50:26;100000.50;;;2.17;100.00
76687;BME280;65615;47.378;19.344;2023-02-02T06:54:36;99995.06;;;2.20;100.00
76687;BME280;65615;47.378;19.344;2023-02-02T06:58:38;100009.09;;;2.30;100.00
76687;BME280;65615;47.378;19.344;2023-02-02T07:02:47;100021.44;;;2.39;100.00
76687;BME280;65615;47.378;19.344;2023-02-02T07:06:50;100020.53;;;2.40;100.00
76687;BME280;65615;47.378;19.344;2023-02-02T07:10:55;100032.06;;;2.48;100.00
76687;BME280;65615;47.378;19.344;2023-02-02T07:15:17;100039.53;;;2.53;100.00
76687;BME280;65615;47.378;19.344;2023-02-02T07:19:21;100025.12;;;2.60;100.00
76687;BME280;65615;47.378;19.344;2023-02-02T07:23:26;100023.94;;;2.64;99.99
76687;BME280;65615;47.378;19.344;2023-02-02T07:27:55;100026.69;;;2.74;99.73
76687;BME280;65615;47.378;19.344;2023-02-02T07:32:09;100031.94;;;2.85;99.18
76687;BME280;65615;47.378;19.344;2023-02-02T07:36:18;100043.00;;;2.99;97.40
76687;BME280;65615;47.378;19.344;2023-02-02T07:40:31;100053.69;;;3.07;96.99
76687;BME280;65615;47.378;19.344;2023-02-02T07:44:36;100054.94;;;3.25;95.30
76687;BME280;65615;47.378;19.344;2023-02-02T07:48:39;100064.94;;;3.42;95.52
76687;BME280;65615;47.378;19.344;2023-02-02T07:52:53;100061.75;;;3.50;94.71
76687;BME280;65615;47.378;19.344;2023-02-02T07:57:00;100050.81;;;3.67;93.47
76687;BME280;65615;47.378;19.344;2023-02-02T08:01:24;100060.41;;;3.89;92.70
76687;BME280;65615;47.378;19.344;2023-02-02T08:05:34;100051.84;;;4.09;91.05
76687;BME280;65615;47.378;19.344;2023-02-02T08:09:51;100059.41;;;4.23;89.61
76687;BME280;65615;47.378;19.344;2023-02-02T08:14:21;100073.06;;;4.38;89.02
76687;BME280;65615;47.378;19.344;2023-02-02T08:18:27;100077.13;;;4.30;88.64
76687;BME280;65615;47.378;19.344;2023-02-02T08:22:39;100077.28;;;4.18;89.30
76687;BME280;65615;47.378;19.344;2023-02-02T08:26:46;100096.19;;;4.10;89.12
76687;BME280;65615;47.378;19.344;2023-02-02T08:30:52;100110.31;;;4.08;88.91
76687;BME280;65615;47.378;19.344;2023-02-02T08:35:19;100101.28;;;4.12;89.73
76687;BME280;65615;47.378;19.344;2023-02-02T08:39:44;100105.22;;;4.60;87.98
76687;BME280;65615;47.378;19.344;2023-02-02T08:43:53;100102.66;;;5.12;85.56
76687;BME280;65615;47.378;19.344;2023-02-02T08:48:16;100109.78;;;5.52;84.21
76687;BME280;65615;47.378;19.344;2023-02-02T08:53:11;100098.56;;;5.61;82.60
76687;BME280;65615;47.378;19.344;2023-02-02T08:57:20;100112.50;;;5.91;80.44
76687;BME280;65615;47.378;19.344;2023-02-02T09:01:51;100100.81;;;6.35;78.49
76687;BME280;65615;47.378;19.344;2023-02-02T09:06:05;100107.38;;;6.79;75.74
76687;BME280;65615;47.378;19.344;2023-02-02T09:10:16;100118.28;;;7.22;75.22
76687;BME280;65615;47.378;19.344;2023-02-02T09:14:21;100117.97;;;7.54;70.97
76687;BME280;65615;47.378;19.344;2023-02-02T09:18:24;100126.44;;;7.00;71.35
76687;BME280;65615;47.378;19.344;2023-02-02T09:22:28;100136.00;;;7.11;73.46
76687;BME280;65615;47.378;19.344;2023-02-02T09:26:45;100142.09;;;7.21;72.39
76687;BME280;65615;47.378;19.344;2023-02-02T09:31:08;100145.63;;;6.81;71.87
76687;BME280;65615;47.378;19.344;2023-02-02T09:35:13;100132.13;;;7.15;71.60
76687;BME280;65615;47.378;19.344;2023-02-02T09:39:20;100139.84;;;7.26;70.02
76687;BME280;65615;47.378;19.344;2023-02-02T09:57:43;100136.81;;;7.02;69.48
76687;BME280;65615;47.378;19.344;2023-02-02T10:01:54;100142.06;;;7.49;67.62
76687;BME280;65615;47.378;19.344;2023-02-02T10:06:10;100145.63;;;7.67;67.42
76687;BME280;65615;47.378;19.344;2023-02-02T10:10:37;100138.19;;;8.09;65.01
76687;BME280;65615;47.378;19.344;2023-02-02T10:15:36;100134.63;;;8.37;64.09
76687;BME280;65615;47.378;19.344;2023-02-02T10:19:48;100128.91;;;8.05;62.37
76687;BME280;65615;47.378;19.344;2023-02-02T10:23:57;100134.94;;;8.25;63.45
76687;BME280;65615;47.378;19.344;2023-02-02T10:28:17;100127.28;;;7.95;62.19
76687;BME280;65615;47.378;19.344;2023-02-02T10:32:33;100127.31;;;7.85;63.05
76687;BME280;65615;47.378;19.344;2023-02-02T10:45:41;100132.09;;;7.34;66.87
76687;BME280;65615;47.378;19.344;2023-02-02T10:50:26;100128.25;;;7.19;65.65
76687;BME280;65615;47.378;19.344;2023-02-02T10:59:16;100135.72;;;7.33;66.64
76687;BME280;65615;47.378;19.344;2023-02-02T11:03:52;100133.34;;;7.49;66.79
76687;BME280;65615;47.378;19.344;2023-02-02T11:08:21;100130.62;;;7.31;65.94
76687;BME280;65615;47.378;19.344;2023-02-02T11:12:36;100130.72;;;7.49;66.50
76687;BME280;65615;47.378;19.344;2023-02-02T11:16:43;100120.47;;;7.55;66.61
76687;BME280;65615;47.378;19.344;2023-02-02T11:20:55;100120.22;;;7.39;66.30
76687;BME280;65615;47.378;19.344;2023-02-02T11:25:26;100125.47;;;7.49;64.97
76687;BME280;65615;47.378;19.344;2023-02-02T11:30:40;100116.59;;;7.50;65.12
76687;BME280;65615;47.378;19.344;2023-02-02T11:39:41;100111.66;;;7.28;67.11
76687;BME280;65615;47.378;19.344;2023-02-02T11:44:42;100107.78;;;7.32;66.33
76687;BME280;65615;47.378;19.344;2023-02-02T11:48:57;100121.06;;;7.21;66.50
76687;BME280;65615;47.378;19.344;2023-02-02T11:53:48;100114.44;;;7.17;67.29
76687;BME280;65615;47.378;19.344;2023-02-02T11:58:18;100116.50;;;7.23;68.77
76687;BME280;65615;47.378;19.344;2023-02-02T12:10:59;100115.41;;;6.97;69.69
76687;BME280;65615;47.378;19.344;2023-02-02T12:20:50;100107.25;;;6.90;69.17
76687;BME280;65615;47.378;19.344;2023-02-02T12:29:28;100110.28;;;7.05;67.37
76687;BME280;65615;47.378;19.344;2023-02-02T12:34:03;100114.78;;;7.60;65.45
76687;BME280;65615;47.378;19.344;2023-02-02T12:47:27;100105.47;;;7.75;66.24
76687;BME280;65615;47.378;19.344;2023-02-02T13:01:27;100093.81;;;6.83;69.08
76687;BME280;65615;47.378;19.344;2023-02-02T13:10:15;100101.84;;;6.82;70.79
76687;BME280;65615;47.378;19.344;2023-02-02T13:14:29;100105.59;;;6.89;72.59
76687;BME280;65615;47.378;19.344;2023-02-02T13:18:46;100101.16;;;6.70;71.25
76687;BME280;65615;47.378;19.344;2023-02-02T13:22:57;100107.25;;;6.71;70.75
76687;BME280;65615;47.378;19.344;2023-02-02T13:27:01;100116.03;;;6.41;71.65
76687;BME280;65615;47.378;19.344;2023-02-02T13:35:42;100124.28;;;6.27;72.57
76687;BME280;65615;47.378;19.344;2023-02-02T13:40:00;100118.56;;;6.22;72.18
76687;BME280;65615;47.378;19.344;2023-02-02T13:44:12;100120.50;;;6.20;71.11
76687;BME280;65615;47.378;19.344;2023-02-02T14:01:25;100137.41;;;5.97;73.87
76687;BME280;65615;47.378;19.344;2023-02-02T14:05:32;100134.50;;;6.00;73.79
76687;BME280;65615;47.378;19.344;2023-02-02T14:09:36;100142.50;;;5.98;74.33
76687;BME280;65615;47.378;19.344;2023-02-02T14:13:45;100139.75;;;6.00;73.71
76687;BME280;65615;47.378;19.344;2023-02-02T14:18:07;100147.88;;;5.97;73.62
76687;BME280;65615;47.378;19.344;2023-02-02T14:26:16;100151.41;;;5.86;74.80
76687;BME280;65615;47.378;19.344;2023-02-02T14:30:27;100151.41;;;5.86;74.57
76687;BME280;65615;47.378;19.344;2023-02-02T14:34:30;100156.78;;;5.85;75.01
76687;BME280;65615;47.378;19.344;2023-02-02T14:39:02;100164.88;;;5.82;75.22
76687;BME280;65615;47.378;19.344;2023-02-02T14:48:01;100182.25;;;5.83;74.99
76687;BME280;65615;47.378;19.344;2023-02-02T14:52:21;100180.97;;;5.77;75.76
76687;BME280;65615;47.378;19.344;2023-02-02T15:00:41;100177.97;;;5.82;75.63
76687;BME280;65615;47.378;19.344;2023-02-02T15:04:46;100181.47;;;5.71;76.40
76687;BME280;65615;47.378;19.344;2023-02-02T15:13:33;100184.44;;;5.78;75.21
76687;BME280;65615;47.378;19.344;2023-02-02T15:21:42;100195.94;;;5.66;76.65
76687;BME280;65615;47.378;19.344;2023-02-02T15:26:39;100199.25;;;5.68;75.96
76687;BME280;65615;47.378;19.344;2023-02-02T15:30:21;100210.19;;;5.52;76.98
76687;BME280;65615;47.378;19.344;2023-02-02T15:34:36;100212.44;;;5.57;77.01
76687;BME280;65615;47.378;19.344;2023-02-02T15:38:41;100217.66;;;5.57;75.83
76687;BME280;65615;47.378;19.344;2023-02-02T15:42:45;100216.75;;;5.47;77.10
